createdAt,value
2023-02-15T00:02:03.131Z,48.31
2023-02-15T00:04:47.747Z,47.79
2023-02-15T00:07:16.131Z,48.00
2023-02-15T00:09:42.770Z,48.05
2023-02-15T00:12:10.774Z,47.37
2023-02-15T00:14:37.117Z,47.67
2023-02-15T00:17:04.823Z,47.54
2023-02-15T00:19:32.198Z,47.54
2023-02-15T00:21:58.817Z,48.13
2023-02-15T00:24:25.539Z,47.33
2023-02-15T00:26:51.938Z,47.40
2023-02-15T00:29:20.424Z,48.35
2023-02-15T00:31:47.173Z,48.53
2023-02-15T00:34:23.887Z,47.73
2023-02-15T00:36:50.973Z,47.79
2023-02-15T00:39:18.326Z,47.34
2023-02-15T00:41:45.477Z,47.95
2023-02-15T00:44:12.197Z,48.01
2023-02-15T00:46:38.729Z,48.01
2023-02-15T00:49:06.109Z,48.47
2023-02-15T00:51:33.502Z,48.21
2023-02-15T00:53:59.801Z,48.30
2023-02-15T00:56:26.301Z,47.62
2023-02-15T00:58:52.641Z,47.67
2023-02-15T01:01:21.167Z,48.01
2023-02-15T01:03:48.013Z,48.39
2023-02-15T01:06:16.514Z,48.41
2023-02-15T01:08:42.866Z,48.65
2023-02-15T01:11:12.093Z,48.03
2023-02-15T01:13:41.191Z,48.29
2023-02-15T01:16:08.397Z,47.78
2023-02-15T01:18:35.558Z,48.08
2023-02-15T01:21:14.882Z,48.11
2023-02-15T01:23:43.049Z,47.43
2023-02-15T01:26:10.519Z,47.66
2023-02-15T01:28:37.346Z,47.85
2023-02-15T01:31:12.052Z,47.97
2023-02-15T01:33:39.417Z,48.33
2023-02-15T01:36:07.311Z,47.89
2023-02-15T01:38:36.356Z,48.05
2023-02-15T01:41:23.694Z,48.17
2023-02-15T01:43:53.057Z,48.04
2023-02-15T01:46:23.482Z,48.30
2023-02-15T01:48:56.383Z,48.00
2023-02-15T01:51:26.973Z,48.31
2023-02-15T01:54:02.818Z,47.93
2023-02-15T01:56:34.268Z,48.50
2023-02-15T01:59:06.811Z,48.20
2023-02-15T02:01:33.254Z,48.68
2023-02-15T02:04:14.083Z,48.66
2023-02-15T02:06:40.970Z,48.02
2023-02-15T02:09:07.810Z,48.10
2023-02-15T02:11:35.611Z,47.91
2023-02-15T02:14:02.073Z,48.68
2023-02-15T02:16:31.433Z,48.63
2023-02-15T02:19:53.699Z,49.08
2023-02-15T02:22:58.023Z,48.51
2023-02-15T02:26:17.332Z,48.70
2023-02-15T02:29:05.277Z,48.63
2023-02-15T02:32:02.509Z,48.24
2023-02-15T02:34:47.372Z,48.48
2023-02-15T02:37:33.993Z,48.74
2023-02-15T02:40:14.213Z,48.85
2023-02-15T02:42:54.682Z,49.18
2023-02-15T02:45:25.881Z,48.69
2023-02-15T02:47:59.426Z,48.29
2023-02-15T02:50:30.785Z,48.59
2023-02-15T02:52:59.629Z,48.01
2023-02-15T02:55:39.868Z,48.71
2023-02-15T02:58:09.140Z,48.07
2023-02-15T03:00:43.913Z,48.39
2023-02-15T03:03:16.237Z,48.55
2023-02-15T03:05:46.000Z,48.14
2023-02-15T03:08:22.778Z,48.56
2023-02-15T03:10:53.456Z,48.22
2023-02-15T03:13:20.634Z,48.11
2023-02-15T03:16:06.343Z,48.13
2023-02-15T03:18:39.878Z,48.18
2023-02-15T03:21:10.458Z,48.56
2023-02-15T03:23:39.255Z,48.29
2023-02-15T03:26:10.463Z,48.25
2023-02-15T03:28:42.332Z,48.95
2023-02-15T03:31:11.067Z,48.24
2023-02-15T03:33:45.544Z,48.78
2023-02-15T03:36:26.635Z,48.67
2023-02-15T03:39:17.266Z,48.70
2023-02-15T03:41:51.338Z,48.65
2023-02-15T03:44:28.015Z,48.67
2023-02-15T03:47:16.831Z,48.27
2023-02-15T03:49:48.639Z,48.17
2023-02-15T03:52:16.957Z,47.72
2023-02-15T03:54:44.633Z,48.51
2023-02-15T03:57:36.360Z,48.52
2023-02-15T04:00:27.454Z,48.55
2023-02-15T04:03:16.584Z,48.75
2023-02-15T04:05:44.715Z,48.02
2023-02-15T04:08:13.081Z,48.19
2023-02-15T04:10:56.913Z,48.49
2023-02-15T04:13:30.595Z,48.49
2023-02-15T04:16:07.348Z,48.53
2023-02-15T04:18:55.846Z,48.54
2023-02-15T04:21:42.331Z,48.67
2023-02-15T04:24:28.199Z,48.61
2023-02-15T04:26:55.500Z,48.51
2023-02-15T04:29:23.045Z,48.72
2023-02-15T04:31:50.487Z,48.63
2023-02-15T04:34:17.169Z,48.89
2023-02-15T04:36:45.245Z,48.46
2023-02-15T04:39:14.787Z,48.63
2023-02-15T04:41:41.511Z,48.71
2023-02-15T04:44:10.956Z,48.54
2023-02-15T04:49:04.927Z,48.60
2023-02-15T04:51:31.660Z,48.52
2023-02-15T04:53:58.051Z,48.54
2023-02-15T04:56:24.446Z,48.74
2023-02-15T04:58:51.010Z,48.46
2023-02-15T05:01:18.436Z,48.51
2023-02-15T05:03:44.914Z,48.46
2023-02-15T05:06:11.285Z,48.47
2023-02-15T05:08:37.936Z,48.63
2023-02-15T05:11:04.544Z,48.38
2023-02-15T05:13:31.157Z,48.34
2023-02-15T05:15:57.675Z,48.39
2023-02-15T05:18:24.185Z,48.37
2023-02-15T05:20:50.693Z,48.20
2023-02-15T05:23:17.314Z,48.32
2023-02-15T05:26:10.129Z,48.52
2023-02-15T05:28:38.134Z,48.23
2023-02-15T05:31:18.099Z,48.43
2023-02-15T05:33:45.438Z,48.20
2023-02-15T05:36:12.138Z,48.51
2023-02-15T05:38:39.511Z,48.32
2023-02-15T05:41:10.470Z,48.35
2023-02-15T05:43:37.915Z,48.49
2023-02-15T05:46:06.717Z,48.33
2023-02-15T05:48:33.970Z,48.14
2023-02-15T05:51:05.440Z,48.28
2023-02-15T05:53:34.858Z,48.50
2023-02-15T05:56:03.633Z,48.40
2023-02-15T05:58:39.718Z,48.98
2023-02-15T06:01:13.751Z,48.63
2023-02-15T06:03:40.342Z,48.46
2023-02-15T06:06:07.595Z,48.51
2023-02-15T06:08:35.595Z,48.31
2023-02-15T06:11:02.341Z,48.31
2023-02-15T06:13:29.353Z,48.42
2023-02-15T06:15:56.002Z,48.65
2023-02-15T06:18:22.518Z,48.39
2023-02-15T06:20:49.615Z,48.51
2023-02-15T06:23:16.306Z,48.53
2023-02-15T06:25:42.972Z,48.21
2023-02-15T06:28:09.296Z,48.51
2023-02-15T06:30:35.921Z,48.46
2023-02-15T06:33:02.302Z,48.75
2023-02-15T06:35:28.939Z,48.31
2023-02-15T06:37:55.542Z,48.59
2023-02-15T06:40:22.029Z,48.59
2023-02-15T06:42:50.025Z,48.42
2023-02-15T06:45:16.643Z,48.65
2023-02-15T06:47:44.006Z,48.66
2023-02-15T06:50:11.436Z,48.62
2023-02-15T06:52:37.834Z,48.43
2023-02-15T06:55:04.487Z,48.62
2023-02-15T06:57:31.002Z,48.59
2023-02-15T06:59:59.292Z,48.56
2023-02-15T07:02:25.790Z,48.58
2023-02-15T07:04:52.429Z,48.70
2023-02-15T07:07:18.779Z,48.75
2023-02-15T07:09:45.160Z,48.89
2023-02-15T07:12:30.252Z,48.94
2023-02-15T07:14:57.070Z,48.73
2023-02-15T07:17:39.007Z,48.90
2023-02-15T07:20:08.780Z,48.70
2023-02-15T07:22:37.378Z,48.62
2023-02-15T07:25:05.554Z,48.86
2023-02-15T07:27:32.868Z,48.84
2023-02-15T07:30:00.459Z,48.55
2023-02-15T07:32:31.704Z,49.18
2023-02-15T07:34:58.467Z,48.84
2023-02-15T07:37:26.280Z,49.01
2023-02-15T07:39:53.072Z,49.08
2023-02-15T07:42:20.947Z,49.21
2023-02-15T07:44:50.380Z,49.37
2023-02-15T07:47:17.004Z,49.38
2023-02-15T07:49:43.519Z,49.04
2023-02-15T07:52:09.923Z,49.14
2023-02-15T07:54:36.618Z,49.40
2023-02-15T07:57:03.241Z,49.28
2023-02-15T07:59:29.890Z,49.34
2023-02-15T08:01:57.370Z,49.25
2023-02-15T08:04:24.332Z,49.40
2023-02-15T08:06:54.256Z,49.32
2023-02-15T08:09:21.495Z,49.66
2023-02-15T08:11:48.187Z,49.58
2023-02-15T08:14:17.398Z,49.28
2023-02-15T08:16:48.273Z,49.86
2023-02-15T08:19:19.292Z,49.59
2023-02-15T08:21:48.263Z,50.13
2023-02-15T08:24:16.233Z,49.69
2023-02-15T08:26:43.727Z,50.11
2023-02-15T08:29:10.527Z,49.61
2023-02-15T08:31:38.510Z,50.17
2023-02-15T08:34:05.841Z,49.46
2023-02-15T08:36:34.837Z,50.21
2023-02-15T08:39:04.023Z,49.49
2023-02-15T08:41:37.625Z,50.14
2023-02-15T08:44:08.593Z,49.25
2023-02-15T08:46:37.446Z,49.21
2023-02-15T08:49:05.680Z,49.74
2023-02-15T08:51:35.150Z,49.05
2023-02-15T08:54:06.785Z,49.70
2023-02-15T08:56:36.074Z,49.36
2023-02-15T08:59:03.457Z,49.19
2023-02-15T09:01:32.183Z,48.67
2023-02-15T09:04:05.065Z,48.50
2023-02-15T09:06:31.773Z,48.40
2023-02-15T09:08:58.346Z,48.38
2023-02-15T09:11:28.604Z,48.09
2023-02-15T09:14:01.564Z,48.05
2023-02-15T09:16:30.455Z,47.70
2023-02-15T09:18:58.935Z,47.71
2023-02-15T09:21:26.920Z,47.61
2023-02-15T09:24:01.989Z,47.64
2023-02-15T09:26:30.926Z,47.57
2023-02-15T09:29:01.624Z,47.47
2023-02-15T09:31:30.963Z,47.55
2023-02-15T09:34:00.044Z,47.35
2023-02-15T09:36:29.321Z,47.36
2023-02-15T09:38:58.408Z,47.43
2023-02-15T09:41:43.576Z,47.06
2023-02-15T09:44:25.212Z,46.50
2023-02-15T09:47:21.047Z,46.38
2023-02-15T09:50:24.831Z,46.02
2023-02-15T09:53:16.181Z,45.70
2023-02-15T09:55:52.289Z,46.29
2023-02-15T09:59:06.886Z,45.66
2023-02-15T10:01:40.622Z,45.82
2023-02-15T10:04:41.447Z,46.14
2023-02-15T10:07:39.437Z,45.81
2023-02-15T10:10:41.235Z,45.79
2023-02-15T10:13:46.367Z,44.99
2023-02-15T10:17:03.420Z,45.64
2023-02-15T10:20:20.662Z,45.11
2023-02-15T10:22:53.092Z,45.27
2023-02-15T10:25:36.561Z,44.66
2023-02-15T10:28:07.431Z,45.00
2023-02-15T10:30:45.946Z,43.81
2023-02-15T10:33:37.055Z,43.81
2023-02-15T10:36:06.454Z,44.30
2023-02-15T10:38:55.564Z,43.67
2023-02-15T10:41:35.431Z,43.67
2023-02-15T10:44:41.414Z,43.06
2023-02-15T10:47:31.705Z,42.62
2023-02-15T10:50:01.128Z,42.98
2023-02-15T10:52:56.613Z,42.49
2023-02-15T10:55:53.081Z,42.40
2023-02-15T10:58:41.643Z,42.29
2023-02-15T11:01:31.724Z,41.85
2023-02-15T11:04:26.143Z,41.89
2023-02-15T11:07:00.984Z,42.03
2023-02-15T11:09:39.681Z,41.50
2023-02-15T11:12:12.620Z,42.27
2023-02-15T11:14:55.111Z,41.33
2023-02-15T11:17:36.362Z,41.14
2023-02-15T11:20:23.906Z,41.14
2023-02-15T11:22:52.057Z,42.11
2023-02-15T11:25:23.293Z,41.54
2023-02-15T11:27:51.357Z,41.78
2023-02-15T11:30:24.483Z,40.16
2023-02-15T11:32:58.071Z,40.71
2023-02-15T11:35:51.882Z,40.05
2023-02-15T11:38:32.307Z,39.59
2023-02-15T11:41:20.854Z,39.77
2023-02-15T11:44:12.182Z,39.59
2023-02-15T11:46:39.315Z,40.36
2023-02-15T11:49:27.183Z,39.28
2023-02-15T11:51:54.442Z,39.77
2023-02-15T11:54:27.105Z,39.38
2023-02-15T11:56:54.256Z,39.76
2023-02-15T11:59:30.913Z,38.33
2023-02-15T12:01:57.477Z,39.43
2023-02-15T12:04:42.303Z,37.71
2023-02-15T12:07:16.901Z,37.99
2023-02-15T12:09:57.450Z,37.52
2023-02-15T12:12:27.012Z,38.45
2023-02-15T12:14:57.378Z,38.02
2023-02-15T12:17:40.520Z,36.74
2023-02-15T12:20:15.832Z,36.66
2023-02-15T12:23:03.980Z,36.58
2023-02-15T12:25:37.448Z,37.15
2023-02-15T12:28:17.773Z,37.33
2023-02-15T12:30:44.632Z,37.70
2023-02-15T12:33:24.042Z,36.15
2023-02-15T12:35:58.425Z,36.12
2023-02-15T12:38:26.481Z,36.91
2023-02-15T12:41:22.029Z,35.85
2023-02-15T12:43:48.636Z,37.08
2023-02-15T12:46:24.593Z,35.38
2023-02-15T12:49:21.344Z,35.56
2023-02-15T12:51:52.721Z,35.78
2023-02-15T12:54:37.777Z,34.64
2023-02-15T12:57:36.490Z,35.05
2023-02-15T13:00:21.869Z,35.33
2023-02-15T13:02:52.784Z,35.98
2023-02-15T13:05:39.479Z,34.85
2023-02-15T13:08:16.372Z,35.04
2023-02-15T13:10:54.641Z,34.95
2023-02-15T13:13:25.299Z,35.44
2023-02-15T13:15:55.074Z,35.47
2023-02-15T13:18:31.878Z,34.50
2023-02-15T13:21:13.546Z,34.56
2023-02-15T13:23:49.289Z,34.59
2023-02-15T13:26:23.533Z,34.61
2023-02-15T13:28:54.450Z,34.68
2023-02-15T13:31:24.640Z,34.85
2023-02-15T13:33:56.062Z,34.06
2023-02-15T13:36:45.358Z,34.11
2023-02-15T13:39:22.126Z,33.90
2023-02-15T13:42:06.857Z,33.58
2023-02-15T13:44:52.890Z,33.40
2023-02-15T13:47:51.333Z,32.96
2023-02-15T13:50:37.204Z,34.25
2023-02-15T13:53:23.963Z,33.18
2023-02-15T13:56:06.721Z,32.79
2023-02-15T13:58:53.990Z,32.73
2023-02-15T14:01:32.111Z,32.41
2023-02-15T14:04:15.123Z,32.54
2023-02-15T14:06:50.961Z,33.26
2023-02-15T14:09:44.084Z,32.59
2023-02-15T14:12:34.222Z,32.38
2023-02-15T14:15:29.210Z,32.25
2023-02-15T14:18:16.129Z,33.00
2023-02-15T14:20:46.685Z,32.78
2023-02-15T14:23:30.626Z,31.80
2023-02-15T14:26:23.204Z,31.91
2023-02-15T14:29:12.568Z,32.07
2023-02-15T14:31:47.013Z,31.89
2023-02-15T14:34:31.321Z,31.88
2023-02-15T14:36:58.753Z,32.40
2023-02-15T14:39:55.761Z,32.68
2023-02-15T14:42:32.109Z,31.79
2023-02-15T14:45:06.195Z,31.53
2023-02-15T14:47:39.547Z,31.57
2023-02-15T14:50:46.198Z,31.77
2023-02-15T14:53:28.661Z,31.57
2023-02-15T14:56:18.962Z,31.56
2023-02-15T14:58:52.510Z,30.89
2023-02-15T15:01:33.780Z,31.20
2023-02-15T15:04:05.465Z,31.69
2023-02-15T15:06:38.366Z,31.06
2023-02-15T15:09:20.845Z,30.56
2023-02-15T15:11:49.261Z,31.39
2023-02-15T15:14:35.619Z,31.19
2023-02-15T15:17:06.783Z,31.41
2023-02-15T15:19:52.834Z,30.73
2023-02-15T15:22:26.760Z,30.62
2023-02-15T15:25:05.622Z,30.84
2023-02-15T15:27:54.089Z,31.01
2023-02-15T15:30:23.509Z,31.03
2023-02-15T15:32:56.056Z,31.02
2023-02-15T15:35:31.147Z,31.23
2023-02-15T15:38:16.203Z,31.22
2023-02-15T15:41:24.564Z,31.36
2023-02-15T15:44:09.474Z,32.19
2023-02-15T15:47:10.444Z,32.33
2023-02-15T15:49:38.997Z,32.49
2023-02-15T15:52:16.146Z,33.05
2023-02-15T15:54:43.912Z,32.69
2023-02-15T15:57:40.208Z,32.92
2023-02-15T16:00:31.697Z,32.89
2023-02-15T16:02:58.320Z,33.44
2023-02-15T16:05:24.920Z,33.67
2023-02-15T16:07:51.468Z,33.89
2023-02-15T16:10:28.967Z,33.78
2023-02-15T16:12:56.540Z,33.78
2023-02-15T16:15:36.283Z,34.07
2023-02-15T16:18:03.215Z,34.21
2023-02-15T16:20:36.839Z,34.61
2023-02-15T16:23:21.410Z,34.88
2023-02-15T16:26:19.245Z,34.88
2023-02-15T16:28:53.673Z,35.27
2023-02-15T16:31:23.252Z,35.14
2023-02-15T16:33:54.379Z,35.45
2023-02-15T16:36:28.699Z,35.76
2023-02-15T16:38:58.327Z,35.71
2023-02-15T16:41:29.948Z,35.37
2023-02-15T16:44:13.973Z,35.75
2023-02-15T16:46:44.541Z,35.66
2023-02-15T16:49:23.974Z,36.18
2023-02-15T16:52:01.159Z,36.08
2023-02-15T16:54:29.996Z,35.99
2023-02-15T16:56:59.797Z,36.11
2023-02-15T16:59:40.111Z,36.88
2023-02-15T17:02:23.611Z,36.63
2023-02-15T17:05:14.628Z,37.00
2023-02-15T17:07:43.628Z,36.97
2023-02-15T17:10:37.167Z,37.06
2023-02-15T17:13:11.211Z,37.05
2023-02-15T17:15:40.682Z,37.41
2023-02-15T17:18:22.710Z,37.79
2023-02-15T17:20:53.284Z,37.63
2023-02-15T17:23:31.528Z,37.83
2023-02-15T17:26:01.529Z,37.71
2023-02-15T17:28:31.458Z,37.86
2023-02-15T17:30:59.409Z,37.90
2023-02-15T17:33:33.857Z,38.26
2023-02-15T17:36:16.907Z,38.57
2023-02-15T17:38:58.367Z,38.55
2023-02-15T17:41:24.948Z,38.52
2023-02-15T17:43:51.377Z,38.29
2023-02-15T17:46:19.824Z,38.34
2023-02-15T17:48:49.064Z,38.40
2023-02-15T17:51:17.086Z,39.08
2023-02-15T17:54:06.798Z,38.53
2023-02-15T17:56:37.982Z,39.14
2023-02-15T17:59:08.071Z,39.13
2023-02-15T18:01:55.945Z,39.24
2023-02-15T18:04:41.743Z,39.29
2023-02-15T18:07:28.945Z,39.29
2023-02-15T18:10:14.034Z,38.88
2023-02-15T18:12:40.798Z,38.87
2023-02-15T18:15:10.896Z,39.02
2023-02-15T18:17:42.661Z,39.18
2023-02-15T18:20:24.232Z,40.01
2023-02-15T18:22:52.165Z,39.60
2023-02-15T18:25:21.104Z,39.84
2023-02-15T18:27:47.466Z,39.94
2023-02-15T18:30:15.985Z,39.78
2023-02-15T18:32:43.353Z,40.27
2023-02-15T18:35:16.470Z,39.55
2023-02-15T18:37:45.370Z,39.74
2023-02-15T18:40:23.625Z,40.40
2023-02-15T18:42:50.084Z,39.73
2023-02-15T18:45:25.211Z,40.10
2023-02-15T18:47:51.694Z,39.45
2023-02-15T18:50:20.824Z,39.36
2023-02-15T18:52:50.901Z,39.24
2023-02-15T18:55:32.436Z,39.30
2023-02-15T18:57:59.412Z,39.53
2023-02-15T19:00:33.924Z,39.17
2023-02-15T19:03:02.844Z,39.26
2023-02-15T19:05:31.795Z,38.89
2023-02-15T19:08:01.546Z,39.06
2023-02-15T19:10:31.187Z,39.34
2023-02-15T19:12:57.838Z,39.30
2023-02-15T19:15:30.686Z,38.41
2023-02-15T19:17:57.405Z,39.24
2023-02-15T19:20:27.965Z,38.93
2023-02-15T19:22:56.402Z,38.88
2023-02-15T19:25:28.346Z,38.53
2023-02-15T19:27:56.273Z,38.87
2023-02-15T19:30:30.095Z,39.22
2023-02-15T19:32:58.525Z,38.70
2023-02-15T19:35:28.967Z,38.55
2023-02-15T19:38:00.366Z,38.68
2023-02-15T19:40:30.865Z,38.62
2023-02-15T19:42:59.726Z,38.49
2023-02-15T19:45:28.665Z,39.07
2023-02-15T19:47:55.230Z,38.83
2023-02-15T19:50:25.990Z,39.21
2023-02-15T19:52:54.409Z,39.47
2023-02-15T19:55:25.493Z,38.89
2023-02-15T19:57:53.057Z,38.96
2023-02-15T20:00:22.802Z,38.87
2023-02-15T20:02:49.606Z,39.02
2023-02-15T20:05:16.125Z,39.00
2023-02-15T20:07:47.002Z,39.21
2023-02-15T20:10:19.945Z,39.77
2023-02-15T20:12:47.582Z,39.52
2023-02-15T20:15:27.592Z,39.66
2023-02-15T20:17:54.288Z,39.62
2023-02-15T20:20:26.914Z,39.37
2023-02-15T20:22:55.265Z,39.27
2023-02-15T20:25:26.817Z,39.98
2023-02-15T20:27:53.838Z,39.96
2023-02-15T20:30:22.204Z,39.46
2023-02-15T20:32:49.021Z,39.62
2023-02-15T20:35:19.369Z,40.09
2023-02-15T20:37:47.708Z,39.68
2023-02-15T20:40:27.829Z,40.12
2023-02-15T20:42:56.284Z,39.38
2023-02-15T20:45:29.147Z,40.03
2023-02-15T20:47:56.009Z,39.46
2023-02-15T20:50:34.057Z,40.04
2023-02-15T20:53:02.589Z,39.87
2023-02-15T20:55:30.155Z,40.24
2023-02-15T20:57:57.958Z,40.31
2023-02-15T21:00:31.163Z,40.24
2023-02-15T21:02:59.852Z,39.26
2023-02-15T21:05:33.130Z,39.98
2023-02-15T21:08:00.429Z,40.30
2023-02-15T21:10:33.211Z,39.85
2023-02-15T21:13:01.174Z,39.40
2023-02-15T21:15:33.648Z,39.86
2023-02-15T21:18:06.201Z,40.47
2023-02-15T21:20:35.304Z,40.16
2023-02-15T21:23:05.031Z,40.67
2023-02-15T21:25:38.151Z,40.49
2023-02-15T21:28:09.786Z,40.00
2023-02-15T21:30:36.176Z,40.19
2023-02-15T21:33:02.851Z,40.39
2023-02-15T21:35:29.412Z,41.05
2023-02-15T21:37:56.262Z,40.10
2023-02-15T21:40:28.954Z,40.30
2023-02-15T21:43:14.695Z,40.84
2023-02-15T21:45:59.952Z,40.40
2023-02-15T21:48:26.372Z,40.12
2023-02-15T21:51:11.516Z,40.68
2023-02-15T21:53:43.719Z,40.54
2023-02-15T21:56:13.811Z,40.85
2023-02-15T21:58:40.284Z,40.36
2023-02-15T22:01:07.423Z,40.97
2023-02-15T22:03:38.107Z,40.48
2023-02-15T22:06:08.398Z,40.51
2023-02-15T22:08:34.953Z,41.08
2023-02-15T22:11:01.749Z,40.46
2023-02-15T22:13:31.735Z,41.44
2023-02-15T22:15:58.690Z,40.60
2023-02-15T22:18:28.238Z,40.68
2023-02-15T22:20:55.687Z,40.98
2023-02-15T22:23:23.135Z,41.13
2023-02-15T22:25:56.029Z,41.49
2023-02-15T22:28:43.467Z,41.69
2023-02-15T22:31:16.403Z,41.89
2023-02-15T22:33:44.760Z,41.35
2023-02-15T22:36:23.412Z,42.08
2023-02-15T22:38:49.903Z,41.36
2023-02-15T22:41:17.133Z,41.50
2023-02-15T22:43:46.123Z,41.50
2023-02-15T22:46:19.049Z,41.80
2023-02-15T22:48:50.081Z,41.64
2023-02-15T22:51:19.942Z,41.76
2023-02-15T22:53:49.418Z,41.89
2023-02-15T22:56:20.019Z,41.78
2023-02-15T22:58:49.404Z,41.79
2023-02-15T23:01:29.669Z,41.90
2023-02-15T23:03:56.417Z,41.81
2023-02-15T23:06:22.896Z,41.80
2023-02-15T23:08:49.480Z,41.39
2023-02-15T23:11:16.911Z,41.72
2023-02-15T23:13:43.246Z,42.22
2023-02-15T23:16:15.638Z,42.46
2023-02-15T23:18:44.140Z,41.73
2023-02-15T23:21:20.696Z,42.21
2023-02-15T23:23:50.387Z,42.41
2023-02-15T23:26:23.419Z,41.97
2023-02-15T23:28:51.516Z,42.08
2023-02-15T23:31:27.372Z,41.91
2023-02-15T23:33:54.834Z,42.03
2023-02-15T23:36:36.795Z,42.70
2023-02-15T23:39:41.834Z,42.29
2023-02-15T23:42:13.901Z,42.29
2023-02-15T23:44:42.938Z,42.17
2023-02-15T23:47:20.715Z,42.18
2023-02-15T23:49:47.486Z,42.09
2023-02-15T23:52:13.991Z,42.35
2023-02-15T23:54:40.346Z,42.86
2023-02-15T23:57:06.918Z,42.88
2023-02-15T23:59:33.279Z,42.53
